Time;durP1;ratioP1;P1;durP2;ratioP2;P2;SDS_P1;SDS_P2;PMS_P1;PMS_P2;Temp;Humidity;BMP_temperature;BMP_pressure;BME280_temperature;BME280_humidity;BME280_pressure;Samples;Min_cycle;Max_cycle;Signal;HPM_P1;HPM_P2
2023/05/08 00:00:14;;;;;;;24.27;20.37;;;;;;;14.90;100.00;155187.28;4959089;28;20919;-75
2023/05/08 00:02:41;;;;;;;23.73;20.77;;;;;;;14.93;100.00;155196.34;4944056;28;20452;-75
2023/05/08 00:05:07;;;;;;;23.30;19.50;;;;;;;14.90;100.00;155187.28;4975375;28;20458;-75
2023/05/08 00:07:35;;;;;;;22.30;19.27;;;;;;;14.87;100.00;155180.78;4957279;28;20455;-75
2023/05/08 00:10:02;;;;;;;25.60;21.70;;;;;;;14.88;100.00;155182.09;4955581;28;20491;-75
2023/05/08 00:12:29;;;;;;;25.37;20.27;;;;;;;14.85;100.00;155174.28;4982946;28;20471;-75
2023/05/08 00:14:56;;;;;;;26.27;21.87;;;;;;;14.84;100.00;155171.66;4977368;28;20816;-75
2023/05/08 00:17:23;;;;;;;22.83;20.07;;;;;;;14.79;100.00;155158.69;4959733;28;20987;-75
2023/05/08 00:19:49;;;;;;;25.90;19.90;;;;;;;14.79;100.00;155158.69;4972500;28;20480;-75
2023/05/08 00:22:16;;;;;;;22.43;19.80;;;;;;;14.77;100.00;155154.81;4975499;28;20467;-76
2023/05/08 00:24:43;;;;;;;23.13;19.93;;;;;;;14.79;100.00;155158.69;4949728;28;20980;-75
2023/05/08 00:27:09;;;;;;;24.00;20.67;;;;;;;14.80;100.00;155162.56;4977602;28;20590;-75
2023/05/08 00:29:36;;;;;;;23.53;20.50;;;;;;;14.75;100.00;155148.25;4957082;28;20540;-75
2023/05/08 00:32:04;;;;;;;24.37;19.63;;;;;;;14.75;100.00;155149.56;4960873;28;21007;-75
2023/05/08 00:34:31;;;;;;;22.37;19.30;;;;;;;14.77;100.00;155153.50;4974003;28;20457;-75
2023/05/08 00:36:57;;;;;;;25.70;20.90;;;;;;;14.77;100.00;155154.81;4970977;28;20460;-75
2023/05/08 00:39:24;;;;;;;24.80;19.83;;;;;;;14.76;100.00;155152.19;4961163;28;20451;-75
2023/05/08 00:41:51;;;;;;;27.87;22.50;;;;;;;14.72;100.00;155141.78;4957555;28;20452;-75
2023/05/08 00:44:17;;;;;;;22.67;18.77;;;;;;;14.81;100.00;155163.88;4977988;28;20982;-75
2023/05/08 00:46:44;;;;;;;27.57;22.03;;;;;;;14.83;100.00;155170.34;4976657;28;20489;-75
2023/05/08 00:49:13;;;;;;;28.47;23.50;;;;;;;14.80;100.00;155162.56;4957116;28;20444;-75
2023/05/08 00:51:41;;;;;;;45.97;25.30;;;;;;;14.77;100.00;155153.50;4977061;28;20470;-75
2023/05/08 00:54:07;;;;;;;27.80;24.80;;;;;;;14.79;100.00;155158.69;4978333;28;20452;-75
2023/05/08 00:56:35;;;;;;;28.10;22.70;;;;;;;14.80;100.00;155162.56;4983158;28;20447;-75
2023/05/08 00:59:03;;;;;;;25.63;21.20;;;;;;;14.81;100.00;155163.88;4969984;28;20451;-75
2023/05/08 01:01:30;;;;;;;24.57;21.63;;;;;;;14.82;100.00;155166.47;4960239;28;20453;-75
2023/05/08 01:03:57;;;;;;;25.53;21.40;;;;;;;14.82;100.00;155166.47;4956741;28;20507;-75
2023/05/08 01:06:24;;;;;;;23.10;20.60;;;;;;;14.80;100.00;155161.31;4958836;28;20484;-75
2023/05/08 01:08:51;;;;;;;28.13;23.20;;;;;;;14.79;100.00;155158.69;4955376;28;20546;-75
2023/05/08 01:11:22;;;;;;;26.67;21.27;;;;;;;14.83;100.00;155170.34;4958071;28;20455;-75
2023/05/08 01:13:59;;;;;;;25.57;21.90;;;;;;;14.85;100.00;155175.53;4940772;28;20493;-75
2023/05/08 01:16:32;;;;;;;28.97;23.87;;;;;;;14.85;100.00;155175.53;4955000;28;20448;-75
2023/05/08 01:19:02;;;;;;;26.10;21.93;;;;;;;14.86;100.00;155176.84;4941588;28;20456;-75
2023/05/08 01:21:34;;;;;;;27.80;22.53;;;;;;;14.90;100.00;155187.28;4971457;28;20531;-75
2023/05/08 01:24:23;;;;;;;30.77;22.87;;;;;;;14.89;100.00;155185.97;4974946;28;20447;-76
2023/05/08 01:27:31;;;;;;;24.10;20.20;;;;;;;14.85;100.00;155174.28;4973151;28;20489;-75
2023/05/08 01:30:33;;;;;;;28.10;22.40;;;;;;;14.84;100.00;155171.66;4961167;28;20460;-76
2023/05/08 01:33:04;;;;;;;24.37;20.60;;;;;;;14.93;100.00;155195.06;4944666;28;20463;-76
2023/05/08 01:35:34;;;;;;;27.27;22.10;;;;;;;14.99;100.00;155211.94;4973029;28;20443;-76
2023/05/08 01:38:08;;;;;;;28.20;22.83;;;;;;;14.93;100.00;155195.06;4982476;28;20483;-76
2023/05/08 01:40:40;;;;;;;27.83;23.17;;;;;;;14.89;100.00;155184.66;4986216;28;20489;-75
2023/05/08 01:43:14;;;;;;;26.57;22.20;;;;;;;14.86;100.00;155178.16;4955938;28;20592;-76
2023/05/08 01:45:45;;;;;;;26.40;21.20;;;;;;;14.85;100.00;155175.53;4957103;28;20439;-76
2023/05/08 01:48:17;;;;;;;28.83;22.83;;;;;;;14.87;100.00;155179.47;4953858;28;20471;-76
2023/05/08 01:50:46;;;;;;;25.50;22.07;;;;;;;14.85;100.00;155175.53;4956337;28;20916;-76
2023/05/08 01:53:17;;;;;;;27.30;22.03;;;;;;;14.84;100.00;155171.66;4963631;28;20454;-76
2023/05/08 01:55:45;;;;;;;25.60;20.47;;;;;;;14.85;100.00;155174.28;4985217;28;20512;-76
2023/05/08 01:58:12;;;;;;;28.67;21.53;;;;;;;14.85;100.00;155174.28;4941764;28;20467;-76
2023/05/08 02:00:40;;;;;;;27.90;21.60;;;;;;;14.82;100.00;155167.78;4973282;28;20532;-76
2023/05/08 02:03:08;;;;;;;26.70;21.90;;;;;;;14.83;100.00;155169.06;4959464;28;20459;-76
2023/05/08 02:05:37;;;;;;;29.30;22.60;;;;;;;14.82;100.00;155166.47;4956618;28;20443;-76
2023/05/08 02:08:04;;;;;;;27.63;21.30;;;;;;;14.80;100.00;155161.31;4953887;28;20462;-76
2023/05/08 02:10:31;;;;;;;22.70;20.03;;;;;;;14.83;100.00;155169.06;4980861;28;20486;-76
2023/05/08 02:12:58;;;;;;;30.03;21.53;;;;;;;14.80;100.00;155161.31;4975559;28;20458;-76
2023/05/08 02:15:27;;;;;;;26.17;21.03;;;;;;;14.81;100.00;155165.19;4976496;28;20461;-76
2023/05/08 02:17:54;;;;;;;28.70;21.90;;;;;;;14.83;100.00;155169.06;4939841;28;20453;-76
2023/05/08 02:20:21;;;;;;;26.90;20.67;;;;;;;14.82;100.00;155167.78;4956041;28;20508;-76
2023/05/08 02:22:51;;;;;;;27.50;21.00;;;;;;;14.76;100.00;155152.19;4963447;28;20463;-76
2023/05/08 02:25:18;;;;;;;28.23;23.20;;;;;;;14.73;100.00;155144.38;4958453;28;20452;-76
2023/05/08 02:27:48;;;;;;;27.37;21.03;;;;;;;14.67;100.00;155128.78;4973252;28;20480;-76
2023/05/08 02:30:16;;;;;;;23.60;19.30;;;;;;;14.64;100.00;155122.28;4960807;28;20436;-76
2023/05/08 02:32:44;;;;;;;28.20;22.30;;;;;;;14.59;100.00;155109.31;4954528;28;20464;-76
2023/05/08 02:35:13;;;;;;;26.07;20.27;;;;;;;14.60;100.00;155111.94;4968626;28;20469;-75
2023/05/08 02:37:40;;;;;;;67.13;26.23;;;;;;;14.61;100.00;155114.50;4959104;28;20451;-75
2023/05/08 02:40:10;;;;;;;67.17;25.77;;;;;;;14.64;100.00;155121.00;4975783;28;20453;-75
2023/05/08 02:42:37;;;;;;;32.90;21.90;;;;;;;14.69;100.00;155132.72;4977882;28;20467;-76
2023/05/08 02:45:04;;;;;;;45.00;24.83;;;;;;;14.62;100.00;155117.09;4976076;28;20455;-75
2023/05/08 02:47:39;;;;;;;33.53;22.10;;;;;;;14.61;100.00;155114.50;4939692;28;20491;-76
2023/05/08 02:50:12;;;;;;;30.33;23.43;;;;;;;14.73;100.00;155143.09;4940672;28;20541;-76
2023/05/08 02:52:44;;;;;;;24.27;19.30;;;;;;;14.68;100.00;155130.09;4968911;28;20457;-75
2023/05/08 02:55:16;;;;;;;28.27;22.10;;;;;;;14.64;100.00;155122.28;4955202;28;20461;-75
2023/05/08 02:57:47;;;;;;;33.67;23.67;;;;;;;14.64;100.00;155121.00;4980671;28;20495;-76
2023/05/08 03:00:17;;;;;;;28.93;23.50;;;;;;;14.59;100.00;155108.00;4984837;28;20452;-75
2023/05/08 03:02:48;;;;;;;27.50;21.50;;;;;;;14.52;100.00;155091.16;4976998;28;20519;-76
2023/05/08 03:05:17;;;;;;;27.20;22.30;;;;;;;14.50;100.00;155085.97;4960431;28;20850;-75
2023/05/08 03:07:45;;;;;;;28.37;22.97;;;;;;;14.49;100.00;155083.34;4960666;28;20495;-75
2023/05/08 03:10:15;;;;;;;28.70;23.10;;;;;;;14.49;100.00;155083.34;4943316;28;20600;-76
2023/05/08 03:12:49;;;;;;;27.70;22.90;;;;;;;14.52;100.00;155089.84;4941466;28;20460;-75
2023/05/08 03:15:22;;;;;;;27.23;20.97;;;;;;;14.52;100.00;155091.16;4941184;28;20496;-75
2023/05/08 03:17:53;;;;;;;26.33;21.87;;;;;;;14.52;100.00;155091.16;4940030;28;21117;-75
2023/05/08 03:20:20;;;;;;;23.23;19.47;;;;;;;14.52;100.00;155091.16;4936043;28;20570;-75
2023/05/08 03:22:48;;;;;;;25.40;20.77;;;;;;;14.52;100.00;155091.16;4954794;28;20457;-75
2023/05/08 03:25:17;;;;;;;28.40;20.00;;;;;;;14.51;100.00;155088.53;4941946;28;20547;-82
2023/05/08 03:27:45;;;;;;;27.70;19.80;;;;;;;14.52;100.00;155089.84;4944437;28;20496;-81
2023/05/08 03:30:13;;;;;;;27.03;19.10;;;;;;;14.54;100.00;155096.31;4953358;28;20459;-80
2023/05/08 03:32:42;;;;;;;21.47;17.77;;;;;;;14.56;100.00;155100.25;4929378;28;20489;-80
2023/05/08 03:35:09;;;;;;;21.70;17.80;;;;;;;14.53;100.00;155093.72;4935862;28;20445;-82
2023/05/08 03:37:36;;;;;;;19.33;16.80;;;;;;;14.46;100.00;155075.53;4923905;29;20464;-81
2023/05/08 03:40:03;;;;;;;18.80;16.43;;;;;;;14.43;100.00;155066.44;4953932;28;20537;-81
2023/05/08 03:42:32;;;;;;;19.77;17.03;;;;;;;14.42;100.00;155065.19;4921248;29;20832;-81
2023/05/08 03:44:59;;;;;;;18.03;15.50;;;;;;;14.43;100.00;155066.44;4939908;28;20464;-81
2023/05/08 03:47:26;;;;;;;17.37;14.27;;;;;;;14.43;100.00;155067.75;4951604;28;20486;-81
2023/05/08 03:49:52;;;;;;;18.60;15.90;;;;;;;14.45;100.00;155072.97;4945621;28;20452;-81
2023/05/08 03:52:19;;;;;;;19.93;16.87;;;;;;;14.47;100.00;155078.16;4951982;28;20461;-81
2023/05/08 03:54:46;;;;;;;18.77;16.10;;;;;;;14.43;100.00;155067.75;4944716;28;20988;-81
2023/05/08 03:57:13;;;;;;;20.07;14.97;;;;;;;14.42;100.00;155065.19;4935761;28;20893;-81
2023/05/08 03:59:48;;;;;;;19.00;16.00;;;;;;;14.43;100.00;155066.44;4923788;28;20511;-81
2023/05/08 04:02:20;;;;;;;20.93;17.20;;;;;;;14.45;100.00;155071.69;4924312;28;20456;-81
2023/05/08 04:04:50;;;;;;;18.93;16.90;;;;;;;14.46;100.00;155074.25;4938758;28;20495;-81
2023/05/08 04:07:25;;;;;;;22.23;18.57;;;;;;;14.46;100.00;155074.25;4920970;28;20488;-81
2023/05/08 04:09:55;;;;;;;19.67;16.53;;;;;;;14.40;100.00;155058.69;4935795;28;20889;-81
2023/05/08 04:12:31;;;;;;;20.80;16.50;;;;;;;14.39;100.00;155057.38;4946582;28;20539;-81
2023/05/08 04:15:04;;;;;;;18.67;15.50;;;;;;;14.38;100.00;155054.75;4952162;28;20466;-82
2023/05/08 04:17:36;;;;;;;19.40;17.20;;;;;;;14.44;100.00;155070.38;4945788;28;20443;-82
2023/05/08 04:20:04;;;;;;;21.60;18.40;;;;;;;14.36;100.00;155049.59;4940136;28;21796;-81
2023/05/08 04:22:33;;;;;;;16.60;14.80;;;;;;;14.35;100.00;155046.97;4958451;28;20457;-81
2023/05/08 04:25:01;;;;;;;21.70;18.30;;;;;;;14.36;100.00;155049.59;4953861;28;20988;-81
2023/05/08 04:27:28;;;;;;;22.80;18.80;;;;;;;14.38;100.00;155053.47;4953428;28;20991;-81
2023/05/08 04:29:56;;;;;;;21.17;17.53;;;;;;;14.35;100.00;155045.72;4973984;28;20478;-81
2023/05/08 04:32:24;;;;;;;19.80;16.30;;;;;;;14.35;100.00;155045.72;4931006;28;21073;-81
2023/05/08 04:34:51;;;;;;;21.63;18.10;;;;;;;14.37;100.00;155050.88;4957346;28;20460;-81
2023/05/08 04:37:25;;;;;;;21.57;17.90;;;;;;;14.38;100.00;155054.75;4953674;28;20881;-81
2023/05/08 04:39:52;;;;;;;19.33;17.20;;;;;;;14.41;100.00;155061.25;4943237;28;20460;-81
2023/05/08 04:42:20;;;;;;;20.77;17.67;;;;;;;14.41;100.00;155061.25;4937323;28;20553;-82
2023/05/08 04:44:47;;;;;;;18.43;16.07;;;;;;;14.41;100.00;155062.56;4961016;28;20459;-81
2023/05/08 04:47:13;;;;;;;19.30;17.10;;;;;;;14.39;100.00;155057.38;4955610;28;20491;-81
2023/05/08 04:49:41;;;;;;;18.77;15.43;;;;;;;14.38;100.00;155054.75;4956046;28;20457;-81
2023/05/08 04:52:08;;;;;;;20.97;16.50;;;;;;;14.37;100.00;155050.88;4932542;28;21010;-82
2023/05/08 04:54:35;;;;;;;19.37;15.87;;;;;;;14.39;100.00;155057.38;4951859;28;20471;-81
2023/05/08 04:57:01;;;;;;;18.17;15.70;;;;;;;14.42;100.00;155065.19;4975396;28;20554;-81
2023/05/08 04:59:28;;;;;;;19.70;16.70;;;;;;;14.46;100.00;155074.25;4973316;28;20460;-81
2023/05/08 05:01:55;;;;;;;22.80;15.63;;;;;;;14.42;100.00;155063.88;4952777;28;20472;-81
2023/05/08 05:04:22;;;;;;;23.50;16.17;;;;;;;14.40;100.00;155058.69;4963283;28;20467;-81
2023/05/08 05:06:50;;;;;;;19.60;15.70;;;;;;;14.39;100.00;155057.38;4972361;28;20515;-81
2023/05/08 05:09:17;;;;;;;18.30;15.47;;;;;;;14.35;100.00;155046.97;4956187;28;20538;-82
2023/05/08 05:11:44;;;;;;;22.27;16.30;;;;;;;14.37;100.00;155052.19;4977932;28;20811;-81
2023/05/08 05:14:10;;;;;;;18.17;15.70;;;;;;;14.43;100.00;155066.44;4961682;28;20460;-81
2023/05/08 05:16:37;;;;;;;22.53;17.60;;;;;;;14.45;100.00;155072.97;4954623;28;20478;-81
2023/05/08 05:19:03;;;;;;;22.37;17.30;;;;;;;14.50;100.00;155085.97;4957837;28;21074;-81
2023/05/08 05:21:30;;;;;;;20.07;16.60;;;;;;;14.52;100.00;155091.16;4943649;28;20452;-81
2023/05/08 05:23:59;;;;;;;19.10;16.60;;;;;;;14.50;100.00;155085.97;4967536;28;20456;-81
2023/05/08 05:26:26;;;;;;;20.90;15.80;;;;;;;14.45;100.00;155071.69;4954356;28;20457;-81
2023/05/08 05:28:52;;;;;;;19.80;17.00;;;;;;;14.51;100.00;155087.22;4970043;28;20483;-81
2023/05/08 05:31:19;;;;;;;19.63;16.33;;;;;;;14.53;100.00;155092.47;4960908;28;20451;-81
2023/05/08 05:33:46;;;;;;;20.70;16.87;;;;;;;14.51;100.00;155087.22;4957766;28;20460;-82
2023/05/08 05:36:13;;;;;;;20.13;16.93;;;;;;;14.50;100.00;155085.97;4969230;28;20564;-82
2023/05/08 05:38:40;;;;;;;21.70;18.33;;;;;;;14.49;100.00;155083.34;4956089;28;20459;-81
2023/05/08 05:41:08;;;;;;;24.10;18.10;;;;;;;14.44;100.00;155070.38;4937750;28;20487;-84
2023/05/08 05:43:34;;;;;;;21.93;16.50;;;;;;;14.38;100.00;155054.75;4939087;28;20518;-81
2023/05/08 05:46:04;;;;;;;21.40;16.57;;;;;;;14.34;100.00;155044.41;4969356;28;20563;-82
2023/05/08 05:48:31;;;;;;;18.57;16.40;;;;;;;14.31;100.00;155035.25;4944330;28;20474;-82
2023/05/08 05:50:57;;;;;;;20.80;16.40;;;;;;;14.30;100.00;155033.94;4953297;28;20503;-83
2023/05/08 05:53:24;;;;;;;20.80;16.73;;;;;;;14.31;100.00;155036.59;4959637;28;20460;-82
2023/05/08 05:55:51;;;;;;;19.87;16.40;;;;;;;14.32;100.00;155037.91;4973040;28;20470;-80
2023/05/08 05:58:20;;;;;;;20.70;17.33;;;;;;;14.35;100.00;155045.72;4961167;28;20451;-81
2023/05/08 06:00:47;;;;;;;20.53;18.33;;;;;;;14.36;100.00;155049.59;4959244;28;20526;-80
2023/05/08 06:03:14;;;;;;;21.27;17.60;;;;;;;14.34;100.00;155043.09;4951167;28;20573;-81
2023/05/08 06:05:46;;;;;;;19.73;17.20;;;;;;;14.36;100.00;155048.28;4958106;28;20448;-82
2023/05/08 06:08:12;;;;;;;20.83;16.00;;;;;;;14.37;100.00;155050.88;4968235;28;20491;-82
2023/05/08 06:10:39;;;;;;;18.73;15.80;;;;;;;14.34;100.00;155044.41;4958841;28;20484;-81
2023/05/08 06:13:07;;;;;;;21.43;16.27;;;;;;;14.33;100.00;155040.47;4963759;28;20817;-81
2023/05/08 06:15:35;;;;;;;21.67;18.30;;;;;;;14.36;100.00;155048.28;4969968;28;20457;-82
2023/05/08 06:18:03;;;;;;;18.60;16.23;;;;;;;14.43;100.00;155067.75;4970800;28;20446;-82
2023/05/08 06:20:29;;;;;;;19.33;15.80;;;;;;;14.44;100.00;155070.38;4952071;28;20991;-82
2023/05/08 06:22:56;;;;;;;21.00;17.47;;;;;;;14.53;100.00;155092.47;4953460;28;20809;-82
2023/05/08 06:25:23;;;;;;;20.60;16.50;;;;;;;14.52;100.00;155091.16;4967497;28;20463;-82
2023/05/08 06:27:49;;;;;;;19.10;17.10;;;;;;;14.51;100.00;155087.22;4976319;28;20543;-82
2023/05/08 06:30:16;;;;;;;16.90;14.80;;;;;;;14.51;100.00;155087.22;4955278;28;20487;-82
2023/05/08 06:32:44;;;;;;;17.40;14.67;;;;;;;14.46;100.00;155075.53;4950730;28;20467;-82
2023/05/08 06:35:10;;;;;;;16.40;14.03;;;;;;;14.42;100.00;155065.19;4975799;28;20511;-82
2023/05/08 06:37:37;;;;;;;15.27;13.30;;;;;;;14.42;100.00;155065.19;4970149;28;20465;-82
2023/05/08 06:40:05;;;;;;;13.50;11.47;;;;;;;14.39;100.00;155057.38;4975184;28;20455;-82
2023/05/08 06:42:31;;;;;;;14.47;13.00;;;;;;;14.40;100.00;155059.94;4941502;28;21006;-82
2023/05/08 06:44:58;;;;;;;16.23;14.20;;;;;;;14.41;100.00;155062.56;4951601;28;20459;-82
2023/05/08 06:47:24;;;;;;;16.87;14.10;;;;;;;14.43;100.00;155066.44;4968443;28;20854;-82
2023/05/08 06:49:52;;;;;;;14.97;13.03;;;;;;;14.47;100.00;155078.16;4948798;28;20817;-82
2023/05/08 06:52:19;;;;;;;16.20;14.50;;;;;;;14.54;100.00;155096.31;4953614;28;20473;-82
2023/05/08 06:54:46;;;;;;;14.33;12.30;;;;;;;14.57;100.00;155104.13;4973726;28;20531;-82
2023/05/08 06:57:13;;;;;;;13.53;12.13;;;;;;;14.56;100.00;155101.50;4959712;28;20469;-82
2023/05/08 06:59:40;;;;;;;15.17;12.37;;;;;;;14.60;100.00;155111.94;4940212;28;20456;-82
2023/05/08 07:02:08;;;;;;;12.10;10.80;;;;;;;14.56;100.00;155101.50;4953201;28;20590;-82
2023/05/08 07:04:35;;;;;;;13.67;12.10;;;;;;;14.51;100.00;155088.53;4960084;28;20886;-75
2023/05/08 07:07:03;;;;;;;13.80;12.40;;;;;;;14.53;100.00;155093.72;4962299;28;20527;-75
2023/05/08 07:09:29;;;;;;;14.70;12.60;;;;;;;14.58;100.00;155105.44;4960184;28;20484;-75
2023/05/08 07:11:56;;;;;;;14.53;12.40;;;;;;;14.60;100.00;155111.94;4946814;28;20460;-75
2023/05/08 07:14:22;;;;;;;16.50;13.83;;;;;;;14.59;100.00;155108.00;4958352;28;20516;-74
2023/05/08 07:16:49;;;;;;;12.17;10.87;;;;;;;14.57;100.00;155102.81;4943794;28;20690;-74
2023/05/08 07:19:16;;;;;;;13.30;11.60;;;;;;;14.62;100.00;155115.81;4964966;28;20456;-74
2023/05/08 07:21:44;;;;;;;13.20;11.80;;;;;;;14.67;100.00;155128.78;4958132;28;20547;-75
2023/05/08 07:24:12;;;;;;;11.67;10.57;;;;;;;14.62;100.00;155115.81;4970119;28;20890;-74
2023/05/08 07:26:39;;;;;;;14.70;11.90;;;;;;;14.68;100.00;155131.41;4959546;28;20463;-75
2023/05/08 07:29:08;;;;;;;15.07;12.90;;;;;;;14.74;100.00;155145.69;4967247;28;20572;-75
2023/05/08 07:31:35;;;;;;;15.13;12.33;;;;;;;14.81;100.00;155163.88;4948225;28;20466;-75
2023/05/08 07:34:01;;;;;;;14.13;12.17;;;;;;;14.86;100.00;155176.84;4963154;28;20456;-75
2023/05/08 07:36:28;;;;;;;13.80;11.67;;;;;;;14.85;100.00;155174.28;4970102;28;20468;-75
2023/05/08 07:38:55;;;;;;;13.00;9.93;;;;;;;14.74;100.00;155147.00;4967775;28;20469;-75
2023/05/08 07:41:25;;;;;;;10.57;9.57;;;;;;;14.70;100.00;155135.28;4954968;28;20476;-75
2023/05/08 07:43:52;;;;;;;10.20;9.10;;;;;;;14.64;100.00;155122.28;4955397;28;20480;-75
2023/05/08 07:46:19;;;;;;;9.67;8.77;;;;;;;14.62;100.00;155115.81;4972176;28;20479;-75
2023/05/08 07:48:45;;;;;;;9.47;8.13;;;;;;;14.68;100.00;155131.41;4966710;28;20489;-76
2023/05/08 07:51:12;;;;;;;10.83;9.70;;;;;;;14.67;100.00;155127.53;4971067;28;20491;-75
2023/05/08 07:53:38;;;;;;;13.00;10.07;;;;;;;14.64;100.00;155122.28;4968144;28;20865;-75
2023/05/08 07:56:06;;;;;;;10.20;8.97;;;;;;;14.66;100.00;155124.91;4952281;28;20469;-75
2023/05/08 07:58:33;;;;;;;10.37;9.37;;;;;;;14.61;100.00;155113.25;4972976;28;20954;-75
2023/05/08 08:01:00;;;;;;;11.77;9.90;;;;;;;14.63;100.00;155119.72;4955016;28;20440;-75
2023/05/08 08:03:27;;;;;;;11.10;9.53;;;;;;;14.67;100.00;155127.53;4974547;28;20467;-75
2023/05/08 08:05:54;;;;;;;13.07;10.70;;;;;;;14.60;100.00;155111.94;4973098;28;20846;-75
2023/05/08 08:08:20;;;;;;;11.50;10.30;;;;;;;14.60;100.00;155111.94;4951270;28;20987;-75
2023/05/08 08:10:47;;;;;;;12.40;11.10;;;;;;;14.65;100.00;155123.59;4968602;28;20488;-75
2023/05/08 08:13:13;;;;;;;12.00;10.67;;;;;;;14.72;100.00;155140.50;4953575;28;20460;-75
2023/05/08 08:15:41;;;;;;;13.20;11.90;;;;;;;14.73;100.00;155143.09;4969846;28;20453;-75
2023/05/08 08:18:08;;;;;;;11.80;10.60;;;;;;;14.75;100.00;155148.25;4955107;28;21048;-75
2023/05/08 08:20:34;;;;;;;11.93;10.70;;;;;;;14.74;100.00;155145.69;4967553;28;20471;-75
2023/05/08 08:23:01;;;;;;;12.70;11.40;;;;;;;14.81;100.00;155163.88;4972511;28;21034;-75
2023/05/08 08:25:27;;;;;;;13.50;12.13;;;;;;;14.85;100.00;155175.53;4956893;28;20470;-75
2023/05/08 08:27:54;;;;;;;13.50;12.10;;;;;;;14.92;100.00;155192.47;4968830;28;20869;-75
2023/05/08 08:30:20;;;;;;;14.57;12.10;;;;;;;14.95;100.00;155200.25;4952555;28;20908;-75
2023/05/08 08:32:48;;;;;;;12.20;10.90;;;;;;;14.98;100.00;155209.38;4978664;28;20464;-75
2023/05/08 08:35:15;;;;;;;13.93;11.43;;;;;;;15.02;100.00;155218.44;4978431;28;20444;-75
2023/05/08 08:37:42;;;;;;;13.20;11.67;;;;;;;15.04;100.00;155223.63;4959870;28;20465;-75
2023/05/08 08:40:09;;;;;;;15.70;11.93;;;;;;;14.99;100.00;155211.94;4955948;28;20955;-74
2023/05/08 08:42:36;;;;;;;13.27;11.90;;;;;;;14.90;100.00;155187.28;4971569;28;20464;-74
2023/05/08 08:45:02;;;;;;;16.13;12.20;;;;;;;14.89;100.00;155184.66;4962783;28;20455;-74
2023/05/08 08:47:32;;;;;;;13.80;12.00;;;;;;;14.91;100.00;155189.84;4952021;28;20524;-75
2023/05/08 08:50:02;;;;;;;12.97;11.57;;;;;;;14.87;100.00;155180.78;4951419;28;20482;-75
2023/05/08 08:52:32;;;;;;;12.60;11.40;;;;;;;14.89;100.00;155184.66;4954165;28;20531;-75
2023/05/08 08:55:00;;;;;;;14.30;12.80;;;;;;;14.93;100.00;155196.34;4952136;28;20973;-75
2023/05/08 08:57:28;;;;;;;14.60;12.60;;;;;;;14.90;100.00;155187.28;4951209;28;20471;-75
2023/05/08 08:59:55;;;;;;;13.37;11.97;;;;;;;14.91;100.00;155189.84;4970225;28;20449;-75
2023/05/08 09:02:22;;;;;;;14.93;12.70;;;;;;;14.91;100.00;155191.16;4965808;28;20885;-75
2023/05/08 09:04:49;;;;;;;13.63;11.60;;;;;;;14.94;100.00;155197.66;4970534;28;20511;-76
2023/05/08 09:07:18;;;;;;;18.10;12.27;;;;;;;14.99;100.00;155211.94;4952458;28;20475;-75
2023/05/08 09:09:45;;;;;;;19.30;13.80;;;;;;;15.01;100.00;155215.88;4966229;28;20497;-75
2023/05/08 09:12:12;;;;;;;15.10;13.50;;;;;;;15.04;100.00;155223.63;4977619;28;20493;-75
2023/05/08 09:14:39;;;;;;;16.00;14.30;;;;;;;15.07;100.00;155231.41;4964992;28;20462;-76
2023/05/08 09:17:05;;;;;;;15.47;13.70;;;;;;;15.11;100.00;155241.84;4969700;28;20457;-75
2023/05/08 09:19:33;;;;;;;16.20;13.90;;;;;;;15.10;100.00;155239.22;4967817;28;20461;-75
2023/05/08 09:22:00;;;;;;;15.80;13.27;;;;;;;15.13;100.00;155247.03;4969758;28;20468;-75
2023/05/08 09:24:54;;;;;;;14.60;12.60;;;;;;;15.08;100.00;155234.03;4970373;28;20456;-75
2023/05/08 09:27:22;;;;;;;14.03;12.60;;;;;;;15.06;100.00;155230.09;4950253;29;20540;-75
2023/05/08 09:29:59;;;;;;;15.40;13.60;;;;;;;15.07;100.00;155232.72;4953122;28;20564;-75
2023/05/08 09:32:26;;;;;;;14.43;12.50;;;;;;;15.10;100.00;155239.22;4964192;28;20456;-75
2023/05/08 09:34:52;;;;;;;14.60;12.50;;;;;;;15.09;100.00;155236.66;4935111;28;20457;-75
2023/05/08 09:37:19;;;;;;;13.63;12.17;;;;;;;15.07;100.00;155231.41;4969680;28;20535;-75
2023/05/08 09:39:47;;;;;;;15.97;13.23;;;;;;;15.09;100.00;155236.66;4967382;28;20449;-75
2023/05/08 09:42:14;;;;;;;13.70;12.30;;;;;;;15.10;100.00;155239.22;4971326;28;20500;-75
2023/05/08 09:44:44;;;;;;;13.50;12.00;;;;;;;15.13;100.00;155248.34;4966220;28;20456;-75
2023/05/08 09:47:12;;;;;;;13.03;11.63;;;;;;;15.14;100.00;155249.66;4970401;28;20453;-75
2023/05/08 09:49:39;;;;;;;15.03;12.50;;;;;;;15.20;100.00;155265.19;4969377;28;20996;-75
2023/05/08 09:52:06;;;;;;;14.53;12.87;;;;;;;15.24;100.00;155276.94;4962988;28;20477;-75
2023/05/08 09:54:33;;;;;;;14.03;11.67;;;;;;;15.29;100.00;155288.63;4936312;28;20790;-75
2023/05/08 09:57:01;;;;;;;13.70;11.37;;;;;;;15.30;100.00;155291.22;4935614;28;20587;-75
2023/05/08 09:59:30;;;;;;;13.60;11.90;;;;;;;15.26;100.00;155280.81;4969903;28;20495;-75
2023/05/08 10:01:56;;;;;;;13.63;10.90;;;;;;;15.26;100.00;155280.81;4966722;28;20457;-75
2023/05/08 10:04:33;;;;;;;13.10;11.77;;;;;;;15.38;100.00;155311.97;4964674;28;20488;-75
2023/05/08 10:06:59;;;;;;;15.40;13.70;;;;;;;15.54;100.00;155353.63;4964776;28;20468;-75
2023/05/08 10:09:26;;;;;;;14.80;13.03;;;;;;;15.64;100.00;155379.66;4963529;28;20489;-75
2023/05/08 10:11:54;;;;;;;13.90;12.50;;;;;;;15.58;100.00;155362.75;4964153;28;20556;-74
2023/05/08 10:14:23;;;;;;;14.17;12.67;;;;;;;15.63;100.00;155375.72;4965230;28;20458;-74
2023/05/08 10:16:51;;;;;;;13.50;12.10;;;;;;;15.70;100.00;155395.22;4966251;28;20510;-74
2023/05/08 10:19:19;;;;;;;13.80;11.60;;;;;;;15.72;100.00;155399.16;4947707;28;20977;-75
2023/05/08 10:21:47;;;;;;;14.63;11.47;;;;;;;15.74;100.00;155405.66;4964808;28;20474;-75
2023/05/08 10:24:16;;;;;;;14.17;12.80;;;;;;;15.71;100.00;155397.84;4970558;28;20448;-75
2023/05/08 10:26:44;;;;;;;13.33;11.87;;;;;;;15.73;100.00;155403.03;4945390;28;20491;-75
2023/05/08 10:29:14;;;;;;;14.27;12.87;;;;;;;15.80;100.00;155419.94;4968014;28;20482;-75
2023/05/08 10:31:44;;;;;;;15.10;13.50;;;;;;;15.89;100.00;155442.00;4965424;28;21033;-75
2023/05/08 10:34:17;;;;;;;13.17;11.73;;;;;;;15.91;100.00;155447.25;4966586;28;20800;-75
2023/05/08 10:36:44;;;;;;;13.23;11.30;;;;;;;15.82;100.00;155426.44;4946661;28;20952;-75
2023/05/08 10:39:11;;;;;;;10.27;9.23;;;;;;;15.89;100.00;155442.00;4949286;28;20465;-75
2023/05/08 10:41:38;;;;;;;11.67;10.47;;;;;;;15.84;100.00;155430.31;4948078;28;20518;-75
2023/05/08 10:44:05;;;;;;;9.40;8.50;;;;;;;15.92;100.00;155449.81;4935336;28;20468;-76
2023/05/08 10:46:37;;;;;;;9.53;8.63;;;;;;;15.92;100.00;155449.81;4949856;28;20462;-75
2023/05/08 10:49:14;;;;;;;9.93;8.93;;;;;;;16.08;100.00;155491.44;4951021;28;20477;-75
2023/05/08 10:51:47;;;;;;;11.03;9.50;;;;;;;16.01;100.00;155474.56;4947832;28;20453;-75
2023/05/08 10:54:20;;;;;;;11.60;10.40;;;;;;;16.11;100.00;155499.25;4958254;28;20455;-75
2023/05/08 10:56:48;;;;;;;10.67;9.50;;;;;;;16.22;100.00;155527.84;4961485;28;20470;-75
2023/05/08 10:59:18;;;;;;;9.17;8.27;;;;;;;16.13;100.00;155504.44;4968459;28;20810;-75
2023/05/08 11:01:47;;;;;;;10.57;7.80;;;;;;;16.05;100.00;155483.63;4967931;28;20541;-75
2023/05/08 11:04:21;;;;;;;6.93;6.20;;;;;;;16.08;100.00;155492.75;4964703;28;20450;-75
2023/05/08 11:06:51;;;;;;;8.20;7.07;;;;;;;16.15;100.00;155509.66;4951984;28;20465;-76